Peplin, Wisconsin
Current Conditions -  °F | °C
As of 5:45 AM on Monday 22 Dec 2014 (Local Time) from KCWA Reporting Station
Haze Haze  
Wind Chill: 23°   Ceiling: 600
Heat Index: 32°   Visibility: 4mi
Dew Point: 32°   Wind: 12mph
Humidity: 100%   Direction: 140°SE
Pressure: 29.84"   Gusts: NA
Location:  44.7605°N, 89.5918°W
Report Text: KCWA 221145Z 14010KT 4SM BR OVC006 00/00 A2984
Loading
Personal Weather Stations






























Interactive Weather Map New forecast layout! Learn more

10-Day Weather Forecast

Advertisements
Track Severe Weather on mobile